sensor_id;sensor_type;location;lat;lon;timestamp;temperature;humidity
584;HTU21D;27024;54.068;12.116;2023-12-20T00:02:16;4.95;118.99
584;HTU21D;27024;54.068;12.116;2023-12-20T00:04:43;4.87;118.99
584;HTU21D;27024;54.068;12.116;2023-12-20T00:07:10;4.79;118.99
584;HTU21D;27024;54.068;12.116;2023-12-20T00:09:37;4.75;118.99
584;HTU21D;27024;54.068;12.116;2023-12-20T00:12:05;4.72;118.99
584;HTU21D;27024;54.068;12.116;2023-12-20T00:14:32;4.71;118.99
584;HTU21D;27024;54.068;12.116;2023-12-20T00:16:59;4.65;118.99
584;HTU21D;27024;54.068;12.116;2023-12-20T00:19:26;4.62;118.99
584;HTU21D;27024;54.068;12.116;2023-12-20T00:21:53;4.56;118.99
584;HTU21D;27024;54.068;12.116;2023-12-20T00:24:20;4.51;118.99
584;HTU21D;27024;54.068;12.116;2023-12-20T00:26:47;4.48;118.99
584;HTU21D;27024;54.068;12.116;2023-12-20T00:29:14;4.49;118.99
584;HTU21D;27024;54.068;12.116;2023-12-20T00:31:41;4.50;118.99
584;HTU21D;27024;54.068;12.116;2023-12-20T00:34:08;4.42;118.99
584;HTU21D;27024;54.068;12.116;2023-12-20T00:36:35;4.39;118.99
584;HTU21D;27024;54.068;12.116;2023-12-20T00:39:02;4.39;118.99
584;HTU21D;27024;54.068;12.116;2023-12-20T00:41:32;4.37;118.99
584;HTU21D;27024;54.068;12.116;2023-12-20T00:43:59;4.33;118.99
584;HTU21D;27024;54.068;12.116;2023-12-20T00:46:26;4.36;118.99
584;HTU21D;27024;54.068;12.116;2023-12-20T00:48:53;4.31;118.99
584;HTU21D;27024;54.068;12.116;2023-12-20T00:51:20;4.29;118.99
584;HTU21D;27024;54.068;12.116;2023-12-20T00:53:47;4.32;118.99
584;HTU21D;27024;54.068;12.116;2023-12-20T00:56:16;4.26;118.99
584;HTU21D;27024;54.068;12.116;2023-12-20T00:58:43;4.28;118.99
584;HTU21D;27024;54.068;12.116;2023-12-20T01:01:10;4.24;118.99
584;HTU21D;27024;54.068;12.116;2023-12-20T01:03:37;4.20;118.99
584;HTU21D;27024;54.068;12.116;2023-12-20T01:06:04;4.17;118.99
584;HTU21D;27024;54.068;12.116;2023-12-20T01:08:32;4.13;118.99
584;HTU21D;27024;54.068;12.116;2023-12-20T01:11:03;4.13;118.99
584;HTU21D;27024;54.068;12.116;2023-12-20T01:13:30;4.05;118.99
584;HTU21D;27024;54.068;12.116;2023-12-20T01:15:58;4.03;118.99
584;HTU21D;27024;54.068;12.116;2023-12-20T01:18:24;4.02;118.99
584;HTU21D;27024;54.068;12.116;2023-12-20T01:20:51;4.02;118.99
584;HTU21D;27024;54.068;12.116;2023-12-20T01:23:18;4.00;118.99
584;HTU21D;27024;54.068;12.116;2023-12-20T01:25:45;3.95;118.99
584;HTU21D;27024;54.068;12.116;2023-12-20T01:28:12;3.90;118.99
584;HTU21D;27024;54.068;12.116;2023-12-20T01:30:39;3.93;118.99
584;HTU21D;27024;54.068;12.116;2023-12-20T01:33:06;3.93;118.99
584;HTU21D;27024;54.068;12.116;2023-12-20T01:35:33;3.95;118.99
584;HTU21D;27024;54.068;12.116;2023-12-20T01:38:00;3.94;118.99
584;HTU21D;27024;54.068;12.116;2023-12-20T01:40:27;4.00;118.99
584;HTU21D;27024;54.068;12.116;2023-12-20T01:43:01;3.98;118.99
584;HTU21D;27024;54.068;12.116;2023-12-20T01:45:28;4.01;118.99
584;HTU21D;27024;54.068;12.116;2023-12-20T01:47:57;4.03;118.99
584;HTU21D;27024;54.068;12.116;2023-12-20T01:50:24;4.07;118.99
584;HTU21D;27024;54.068;12.116;2023-12-20T01:52:52;4.10;118.99
584;HTU21D;27024;54.068;12.116;2023-12-20T01:55:22;4.13;118.99
584;HTU21D;27024;54.068;12.116;2023-12-20T01:57:49;4.16;118.99
584;HTU21D;27024;54.068;12.116;2023-12-20T02:00:17;4.22;118.99
584;HTU21D;27024;54.068;12.116;2023-12-20T02:02:45;4.26;118.99
584;HTU21D;27024;54.068;12.116;2023-12-20T02:05:13;4.31;118.99
584;HTU21D;27024;54.068;12.116;2023-12-20T02:07:40;4.33;118.99
584;HTU21D;27024;54.068;12.116;2023-12-20T02:10:07;4.36;118.99
584;HTU21D;27024;54.068;12.116;2023-12-20T02:12:34;4.36;118.99
584;HTU21D;27024;54.068;12.116;2023-12-20T02:15:02;4.31;118.99
584;HTU21D;27024;54.068;12.116;2023-12-20T02:17:29;4.30;118.99
584;HTU21D;27024;54.068;12.116;2023-12-20T02:19:56;4.24;118.99
584;HTU21D;27024;54.068;12.116;2023-12-20T02:22:24;4.23;118.99
584;HTU21D;27024;54.068;12.116;2023-12-20T02:24:51;4.23;118.99
584;HTU21D;27024;54.068;12.116;2023-12-20T02:27:19;4.24;118.99
584;HTU21D;27024;54.068;12.116;2023-12-20T02:29:47;4.24;118.99
584;HTU21D;27024;54.068;12.116;2023-12-20T02:32:15;4.23;118.99
584;HTU21D;27024;54.068;12.116;2023-12-20T02:34:42;4.28;118.99
584;HTU21D;27024;54.068;12.116;2023-12-20T02:37:09;4.29;118.99
584;HTU21D;27024;54.068;12.116;2023-12-20T02:39:36;4.31;118.99
584;HTU21D;27024;54.068;12.116;2023-12-20T02:42:03;4.38;118.99
584;HTU21D;27024;54.068;12.116;2023-12-20T02:44:30;4.35;118.99
584;HTU21D;27024;54.068;12.116;2023-12-20T02:46:57;4.35;118.99
584;HTU21D;27024;54.068;12.116;2023-12-20T02:49:24;4.33;118.99
584;HTU21D;27024;54.068;12.116;2023-12-20T02:51:51;4.38;118.99
584;HTU21D;27024;54.068;12.116;2023-12-20T02:54:18;4.36;118.99
584;HTU21D;27024;54.068;12.116;2023-12-20T02:56:46;4.41;118.99
584;HTU21D;27024;54.068;12.116;2023-12-20T02:59:13;4.43;118.99
584;HTU21D;27024;54.068;12.116;2023-12-20T03:01:45;4.44;118.99
584;HTU21D;27024;54.068;12.116;2023-12-20T03:04:12;4.47;118.99
584;HTU21D;27024;54.068;12.116;2023-12-20T03:06:39;4.47;118.99
584;HTU21D;27024;54.068;12.116;2023-12-20T03:09:07;4.43;118.99
584;HTU21D;27024;54.068;12.116;2023-12-20T03:11:34;4.42;118.99
584;HTU21D;27024;54.068;12.116;2023-12-20T03:14:00;4.45;118.99
584;HTU21D;27024;54.068;12.116;2023-12-20T03:16:27;4.38;118.99
584;HTU21D;27024;54.068;12.116;2023-12-20T03:18:54;4.38;118.99
584;HTU21D;27024;54.068;12.116;2023-12-20T03:21:21;4.38;118.99
584;HTU21D;27024;54.068;12.116;2023-12-20T03:23:48;4.41;118.99
584;HTU21D;27024;54.068;12.116;2023-12-20T03:26:15;4.38;118.99
584;HTU21D;27024;54.068;12.116;2023-12-20T03:28:42;4.39;118.99
584;HTU21D;27024;54.068;12.116;2023-12-20T03:31:09;4.38;118.99
584;HTU21D;27024;54.068;12.116;2023-12-20T03:33:36;4.35;118.99
584;HTU21D;27024;54.068;12.116;2023-12-20T03:36:04;4.36;118.99
584;HTU21D;27024;54.068;12.116;2023-12-20T03:38:31;4.34;118.99
584;HTU21D;27024;54.068;12.116;2023-12-20T03:40:58;4.35;118.99
584;HTU21D;27024;54.068;12.116;2023-12-20T03:43:25;4.36;118.99
584;HTU21D;27024;54.068;12.116;2023-12-20T03:45:51;4.44;118.99
584;HTU21D;27024;54.068;12.116;2023-12-20T03:48:18;4.44;118.99
584;HTU21D;27024;54.068;12.116;2023-12-20T03:50:45;4.42;118.99
584;HTU21D;27024;54.068;12.116;2023-12-20T03:53:12;4.47;118.99
584;HTU21D;27024;54.068;12.116;2023-12-20T03:55:39;4.49;118.99
584;HTU21D;27024;54.068;12.116;2023-12-20T03:58:06;4.48;118.99
584;HTU21D;27024;54.068;12.116;2023-12-20T04:00:33;4.50;118.99
584;HTU21D;27024;54.068;12.116;2023-12-20T04:02:59;4.54;118.99
584;HTU21D;27024;54.068;12.116;2023-12-20T04:05:26;4.57;118.99
584;HTU21D;27024;54.068;12.116;2023-12-20T04:07:53;4.60;118.99
584;HTU21D;27024;54.068;12.116;2023-12-20T04:10:20;4.62;118.99
584;HTU21D;27024;54.068;12.116;2023-12-20T04:12:47;4.65;118.99
584;HTU21D;27024;54.068;12.116;2023-12-20T04:15:14;4.68;118.99
584;HTU21D;27024;54.068;12.116;2023-12-20T04:17:41;4.71;118.99
584;HTU21D;27024;54.068;12.116;2023-12-20T04:20:08;4.72;118.99
584;HTU21D;27024;54.068;12.116;2023-12-20T04:22:35;4.71;118.99
584;HTU21D;27024;54.068;12.116;2023-12-20T04:25:02;4.75;118.99
584;HTU21D;27024;54.068;12.116;2023-12-20T04:27:29;4.74;118.99
584;HTU21D;27024;54.068;12.116;2023-12-20T04:29:56;4.81;118.99
584;HTU21D;27024;54.068;12.116;2023-12-20T04:32:23;4.76;118.99
584;HTU21D;27024;54.068;12.116;2023-12-20T04:34:50;4.79;118.99
584;HTU21D;27024;54.068;12.116;2023-12-20T04:37:17;4.79;118.99
584;HTU21D;27024;54.068;12.116;2023-12-20T04:39:44;4.79;118.99
584;HTU21D;27024;54.068;12.116;2023-12-20T04:42:11;4.83;118.99
584;HTU21D;27024;54.068;12.116;2023-12-20T04:44:38;4.78;118.99
584;HTU21D;27024;54.068;12.116;2023-12-20T04:47:06;4.82;118.99
584;HTU21D;27024;54.068;12.116;2023-12-20T04:49:33;4.79;118.99
584;HTU21D;27024;54.068;12.116;2023-12-20T04:52:00;4.77;118.99
584;HTU21D;27024;54.068;12.116;2023-12-20T04:54:27;4.84;118.99
584;HTU21D;27024;54.068;12.116;2023-12-20T04:56:54;4.78;118.99
584;HTU21D;27024;54.068;12.116;2023-12-20T04:59:21;4.76;118.99
584;HTU21D;27024;54.068;12.116;2023-12-20T05:01:48;4.79;118.99
584;HTU21D;27024;54.068;12.116;2023-12-20T05:04:16;4.78;118.99
584;HTU21D;27024;54.068;12.116;2023-12-20T05:06:43;4.76;118.99
584;HTU21D;27024;54.068;12.116;2023-12-20T05:09:10;4.79;118.99
584;HTU21D;27024;54.068;12.116;2023-12-20T05:11:37;4.81;118.99
584;HTU21D;27024;54.068;12.116;2023-12-20T05:14:04;4.80;118.99
584;HTU21D;27024;54.068;12.116;2023-12-20T05:16:31;4.86;118.99
584;HTU21D;27024;54.068;12.116;2023-12-20T05:18:58;4.78;118.99
584;HTU21D;27024;54.068;12.116;2023-12-20T05:21:27;4.76;118.99
584;HTU21D;27024;54.068;12.116;2023-12-20T05:23:54;4.81;118.99
584;HTU21D;27024;54.068;12.116;2023-12-20T05:26:21;4.86;118.99
584;HTU21D;27024;54.068;12.116;2023-12-20T05:28:48;4.81;118.99
584;HTU21D;27024;54.068;12.116;2023-12-20T05:31:15;4.88;118.99
584;HTU21D;27024;54.068;12.116;2023-12-20T05:33:42;4.87;118.99
584;HTU21D;27024;54.068;12.116;2023-12-20T05:36:09;4.83;118.99
584;HTU21D;27024;54.068;12.116;2023-12-20T05:38:38;4.86;118.99
584;HTU21D;27024;54.068;12.116;2023-12-20T05:41:05;4.87;118.99
584;HTU21D;27024;54.068;12.116;2023-12-20T05:43:31;4.89;118.99
584;HTU21D;27024;54.068;12.116;2023-12-20T05:45:59;4.78;118.99
584;HTU21D;27024;54.068;12.116;2023-12-20T05:48:26;4.75;118.99
584;HTU21D;27024;54.068;12.116;2023-12-20T05:50:54;4.77;118.99
584;HTU21D;27024;54.068;12.116;2023-12-20T05:53:21;4.74;118.99
584;HTU21D;27024;54.068;12.116;2023-12-20T05:55:48;4.72;118.99
584;HTU21D;27024;54.068;12.116;2023-12-20T05:58:15;4.72;118.99
584;HTU21D;27024;54.068;12.116;2023-12-20T06:00:43;4.72;118.99
584;HTU21D;27024;54.068;12.116;2023-12-20T06:03:10;4.71;118.99
584;HTU21D;27024;54.068;12.116;2023-12-20T06:05:36;4.74;118.99
584;HTU21D;27024;54.068;12.116;2023-12-20T06:08:03;4.67;118.99
584;HTU21D;27024;54.068;12.116;2023-12-20T06:10:30;4.69;118.99
584;HTU21D;27024;54.068;12.116;2023-12-20T06:12:57;4.61;118.99
584;HTU21D;27024;54.068;12.116;2023-12-20T06:15:26;4.56;118.99
584;HTU21D;27024;54.068;12.116;2023-12-20T06:17:53;4.52;118.99
584;HTU21D;27024;54.068;12.116;2023-12-20T06:20:20;4.49;118.99
584;HTU21D;27024;54.068;12.116;2023-12-20T06:22:47;4.46;118.99
584;HTU21D;27024;54.068;12.116;2023-12-20T06:25:14;4.46;118.99
584;HTU21D;27024;54.068;12.116;2023-12-20T06:27:41;4.45;118.99
584;HTU21D;27024;54.068;12.116;2023-12-20T06:30:08;4.45;118.99
584;HTU21D;27024;54.068;12.116;2023-12-20T06:32:36;4.43;118.99
584;HTU21D;27024;54.068;12.116;2023-12-20T06:35:05;4.44;118.99
584;HTU21D;27024;54.068;12.116;2023-12-20T06:37:32;4.44;118.99
584;HTU21D;27024;54.068;12.116;2023-12-20T06:39:59;4.41;118.99
584;HTU21D;27024;54.068;12.116;2023-12-20T06:42:26;4.42;118.99
584;HTU21D;27024;54.068;12.116;2023-12-20T06:44:53;4.42;118.99
584;HTU21D;27024;54.068;12.116;2023-12-20T06:47:20;4.42;118.99
584;HTU21D;27024;54.068;12.116;2023-12-20T06:49:47;4.42;118.99
584;HTU21D;27024;54.068;12.116;2023-12-20T06:52:15;4.37;118.99
584;HTU21D;27024;54.068;12.116;2023-12-20T06:54:41;4.39;118.99
584;HTU21D;27024;54.068;12.116;2023-12-20T06:57:08;4.33;118.99
584;HTU21D;27024;54.068;12.116;2023-12-20T06:59:40;4.22;118.99
584;HTU21D;27024;54.068;12.116;2023-12-20T07:02:08;4.22;118.99
584;HTU21D;27024;54.068;12.116;2023-12-20T07:04:41;4.22;118.99
584;HTU21D;27024;54.068;12.116;2023-12-20T07:07:08;4.23;118.99
584;HTU21D;27024;54.068;12.116;2023-12-20T07:09:35;4.24;118.99
584;HTU21D;27024;54.068;12.116;2023-12-20T07:12:02;4.24;118.99
584;HTU21D;27024;54.068;12.116;2023-12-20T07:14:30;4.26;118.99
584;HTU21D;27024;54.068;12.116;2023-12-20T07:16:57;4.32;118.99
584;HTU21D;27024;54.068;12.116;2023-12-20T07:19:23;4.31;118.99
584;HTU21D;27024;54.068;12.116;2023-12-20T07:21:50;4.32;118.99
584;HTU21D;27024;54.068;12.116;2023-12-20T07:24:17;4.36;118.99
584;HTU21D;27024;54.068;12.116;2023-12-20T07:26:44;4.39;118.99
584;HTU21D;27024;54.068;12.116;2023-12-20T07:29:11;4.37;118.99
584;HTU21D;27024;54.068;12.116;2023-12-20T07:31:38;4.47;118.99
584;HTU21D;27024;54.068;12.116;2023-12-20T07:34:05;4.36;118.99
584;HTU21D;27024;54.068;12.116;2023-12-20T07:36:32;4.35;118.99
584;HTU21D;27024;54.068;12.116;2023-12-20T07:38:59;4.35;118.99
584;HTU21D;27024;54.068;12.116;2023-12-20T07:41:26;4.34;118.99
584;HTU21D;27024;54.068;12.116;2023-12-20T07:43:53;4.37;118.99
584;HTU21D;27024;54.068;12.116;2023-12-20T07:46:21;4.38;118.99
584;HTU21D;27024;54.068;12.116;2023-12-20T07:48:51;4.38;118.99
584;HTU21D;27024;54.068;12.116;2023-12-20T07:51:18;4.37;118.99
584;HTU21D;27024;54.068;12.116;2023-12-20T07:53:44;4.38;118.99
584;HTU21D;27024;54.068;12.116;2023-12-20T07:56:15;4.37;118.99
584;HTU21D;27024;54.068;12.116;2023-12-20T07:58:43;4.36;118.99
584;HTU21D;27024;54.068;12.116;2023-12-20T08:01:18;4.36;118.99
584;HTU21D;27024;54.068;12.116;2023-12-20T08:03:46;4.52;118.99
584;HTU21D;27024;54.068;12.116;2023-12-20T08:06:13;4.69;118.99
584;HTU21D;27024;54.068;12.116;2023-12-20T08:08:40;4.60;118.99
584;HTU21D;27024;54.068;12.116;2023-12-20T08:11:09;4.48;118.99
584;HTU21D;27024;54.068;12.116;2023-12-20T08:13:36;4.47;118.99
584;HTU21D;27024;54.068;12.116;2023-12-20T08:16:03;4.61;118.99
584;HTU21D;27024;54.068;12.116;2023-12-20T08:18:32;4.77;118.99
584;HTU21D;27024;54.068;12.116;2023-12-20T08:20:59;4.66;118.99
584;HTU21D;27024;54.068;12.116;2023-12-20T08:23:27;4.64;118.99
584;HTU21D;27024;54.068;12.116;2023-12-20T08:25:56;4.60;118.99
584;HTU21D;27024;54.068;12.116;2023-12-20T08:28:23;4.60;118.99
584;HTU21D;27024;54.068;12.116;2023-12-20T08:30:50;4.64;118.99
584;HTU21D;27024;54.068;12.116;2023-12-20T08:33:20;4.61;118.99
584;HTU21D;27024;54.068;12.116;2023-12-20T08:35:47;4.64;118.99
584;HTU21D;27024;54.068;12.116;2023-12-20T08:38:15;4.63;118.99
584;HTU21D;27024;54.068;12.116;2023-12-20T08:40:43;4.65;118.99
584;HTU21D;27024;54.068;12.116;2023-12-20T08:43:10;4.64;118.99
584;HTU21D;27024;54.068;12.116;2023-12-20T08:45:37;4.66;118.99
584;HTU21D;27024;54.068;12.116;2023-12-20T08:48:05;4.65;118.99
584;HTU21D;27024;54.068;12.116;2023-12-20T08:50:35;4.56;118.99
584;HTU21D;27024;54.068;12.116;2023-12-20T08:53:03;4.41;118.99
584;HTU21D;27024;54.068;12.116;2023-12-20T08:55:30;4.33;118.99
584;HTU21D;27024;54.068;12.116;2023-12-20T08:57:58;4.35;118.99
584;HTU21D;27024;54.068;12.116;2023-12-20T09:00:26;4.29;118.99
584;HTU21D;27024;54.068;12.116;2023-12-20T09:02:54;4.26;118.99
584;HTU21D;27024;54.068;12.116;2023-12-20T09:05:21;4.18;118.99
584;HTU21D;27024;54.068;12.116;2023-12-20T09:07:49;4.16;118.99
584;HTU21D;27024;54.068;12.116;2023-12-20T09:10:16;4.13;118.99
584;HTU21D;27024;54.068;12.116;2023-12-20T09:12:52;4.09;118.99
584;HTU21D;27024;54.068;12.116;2023-12-20T09:15:24;4.09;118.99
584;HTU21D;27024;54.068;12.116;2023-12-20T09:17:51;4.15;118.99
584;HTU21D;27024;54.068;12.116;2023-12-20T09:20:18;4.24;118.99
584;HTU21D;27024;54.068;12.116;2023-12-20T09:22:45;4.28;118.99
584;HTU21D;27024;54.068;12.116;2023-12-20T09:25:12;4.31;118.99
584;HTU21D;27024;54.068;12.116;2023-12-20T09:27:40;4.34;118.99
584;HTU21D;27024;54.068;12.116;2023-12-20T09:30:08;4.34;118.99
584;HTU21D;27024;54.068;12.116;2023-12-20T09:32:35;4.35;118.99
584;HTU21D;27024;54.068;12.116;2023-12-20T09:35:02;4.37;118.99
584;HTU21D;27024;54.068;12.116;2023-12-20T09:37:32;4.41;118.99
584;HTU21D;27024;54.068;12.116;2023-12-20T09:39:59;4.47;118.99
584;HTU21D;27024;54.068;12.116;2023-12-20T09:42:39;4.57;118.99
584;HTU21D;27024;54.068;12.116;2023-12-20T09:45:09;4.54;118.99
584;HTU21D;27024;54.068;12.116;2023-12-20T09:47:39;4.56;118.99
584;HTU21D;27024;54.068;12.116;2023-12-20T09:50:08;4.75;118.99
584;HTU21D;27024;54.068;12.116;2023-12-20T09:52:36;4.60;118.99
584;HTU21D;27024;54.068;12.116;2023-12-20T09:55:04;4.54;118.99
584;HTU21D;27024;54.068;12.116;2023-12-20T09:57:34;4.53;118.99
584;HTU21D;27024;54.068;12.116;2023-12-20T10:00:01;4.59;118.99
584;HTU21D;27024;54.068;12.116;2023-12-20T10:02:29;4.64;118.99
584;HTU21D;27024;54.068;12.116;2023-12-20T10:04:59;4.54;118.99
584;HTU21D;27024;54.068;12.116;2023-12-20T10:07:27;4.51;118.99
584;HTU21D;27024;54.068;12.116;2023-12-20T10:09:54;4.47;118.99
584;HTU21D;27024;54.068;12.116;2023-12-20T10:12:22;4.47;118.99
584;HTU21D;27024;54.068;12.116;2023-12-20T10:14:50;4.56;118.99
584;HTU21D;27024;54.068;12.116;2023-12-20T10:17:17;4.51;118.99
584;HTU21D;27024;54.068;12.116;2023-12-20T10:19:45;4.49;118.99
584;HTU21D;27024;54.068;12.116;2023-12-20T10:22:12;4.49;118.99
584;HTU21D;27024;54.068;12.116;2023-12-20T10:24:40;4.48;118.99
584;HTU21D;27024;54.068;12.116;2023-12-20T10:27:08;4.46;118.99
584;HTU21D;27024;54.068;12.116;2023-12-20T10:29:35;4.45;118.99
584;HTU21D;27024;54.068;12.116;2023-12-20T10:32:24;4.42;118.99
584;HTU21D;27024;54.068;12.116;2023-12-20T10:34:52;4.45;118.99
584;HTU21D;27024;54.068;12.116;2023-12-20T10:37:20;4.45;118.99
584;HTU21D;27024;54.068;12.116;2023-12-20T10:39:50;4.45;118.99
584;HTU21D;27024;54.068;12.116;2023-12-20T10:42:21;4.46;118.99
584;HTU21D;27024;54.068;12.116;2023-12-20T10:44:49;4.46;118.99
584;HTU21D;27024;54.068;12.116;2023-12-20T10:47:17;4.42;118.99
584;HTU21D;27024;54.068;12.116;2023-12-20T10:49:45;4.30;118.99
584;HTU21D;27024;54.068;12.116;2023-12-20T10:52:13;4.24;118.99
584;HTU21D;27024;54.068;12.116;2023-12-20T10:54:40;4.29;118.99
584;HTU21D;27024;54.068;12.116;2023-12-20T10:57:08;4.30;118.99
584;HTU21D;27024;54.068;12.116;2023-12-20T10:59:36;4.34;118.99
584;HTU21D;27024;54.068;12.116;2023-12-20T11:02:04;4.39;118.99
584;HTU21D;27024;54.068;12.116;2023-12-20T11:04:49;4.47;118.99
584;HTU21D;27024;54.068;12.116;2023-12-20T11:07:23;4.53;118.99
584;HTU21D;27024;54.068;12.116;2023-12-20T11:10:15;4.59;118.99
584;HTU21D;27024;54.068;12.116;2023-12-20T11:13:08;4.54;118.99
584;HTU21D;27024;54.068;12.116;2023-12-20T11:15:39;4.51;118.99
584;HTU21D;27024;54.068;12.116;2023-12-20T11:18:06;4.51;118.99
584;HTU21D;27024;54.068;12.116;2023-12-20T11:20:38;4.47;118.99
584;HTU21D;27024;54.068;12.116;2023-12-20T11:23:05;4.46;118.99
584;HTU21D;27024;54.068;12.116;2023-12-20T11:25:53;4.50;118.99
584;HTU21D;27024;54.068;12.116;2023-12-20T11:28:21;4.49;118.99
584;HTU21D;27024;54.068;12.116;2023-12-20T11:30:54;4.79;118.99
584;HTU21D;27024;54.068;12.116;2023-12-20T11:33:23;5.09;118.99
584;HTU21D;27024;54.068;12.116;2023-12-20T11:35:58;5.09;118.99
584;HTU21D;27024;54.068;12.116;2023-12-20T11:38:26;5.16;118.99
584;HTU21D;27024;54.068;12.116;2023-12-20T11:40:54;5.11;118.99
584;HTU21D;27024;54.068;12.116;2023-12-20T11:43:38;5.09;118.99
584;HTU21D;27024;54.068;12.116;2023-12-20T11:46:06;5.18;118.99
584;HTU21D;27024;54.068;12.116;2023-12-20T11:48:40;5.08;118.99
584;HTU21D;27024;54.068;12.116;2023-12-20T11:51:10;5.11;118.99
584;HTU21D;27024;54.068;12.116;2023-12-20T11:53:41;5.38;118.99
584;HTU21D;27024;54.068;12.116;2023-12-20T11:56:09;5.32;118.99
584;HTU21D;27024;54.068;12.116;2023-12-20T11:58:37;5.31;118.99
584;HTU21D;27024;54.068;12.116;2023-12-20T12:01:05;5.43;118.99
584;HTU21D;27024;54.068;12.116;2023-12-20T12:03:35;5.46;118.99
584;HTU21D;27024;54.068;12.116;2023-12-20T12:06:02;5.42;118.99
584;HTU21D;27024;54.068;12.116;2023-12-20T12:08:32;5.50;118.99
584;HTU21D;27024;54.068;12.116;2023-12-20T12:10:59;5.53;118.99
584;HTU21D;27024;54.068;12.116;2023-12-20T12:13:26;5.27;118.99
584;HTU21D;27024;54.068;12.116;2023-12-20T12:15:54;5.32;118.99
584;HTU21D;27024;54.068;12.116;2023-12-20T12:18:21;5.19;118.99
584;HTU21D;27024;54.068;12.116;2023-12-20T12:20:48;5.16;118.99
584;HTU21D;27024;54.068;12.116;2023-12-20T12:23:22;5.28;118.99
584;HTU21D;27024;54.068;12.116;2023-12-20T12:25:50;5.20;118.99
584;HTU21D;27024;54.068;12.116;2023-12-20T12:28:17;5.15;118.99
584;HTU21D;27024;54.068;12.116;2023-12-20T12:30:57;5.15;118.99
584;HTU21D;27024;54.068;12.116;2023-12-20T12:33:25;5.27;118.99
584;HTU21D;27024;54.068;12.116;2023-12-20T12:35:53;5.19;118.99
584;HTU21D;27024;54.068;12.116;2023-12-20T12:38:21;5.20;118.99
584;HTU21D;27024;54.068;12.116;2023-12-20T12:40:49;5.19;118.99
584;HTU21D;27024;54.068;12.116;2023-12-20T12:43:16;5.21;118.99
584;HTU21D;27024;54.068;12.116;2023-12-20T12:45:43;5.13;118.99
584;HTU21D;27024;54.068;12.116;2023-12-20T12:48:10;5.04;118.99
584;HTU21D;27024;54.068;12.116;2023-12-20T12:50:37;5.02;118.99
584;HTU21D;27024;54.068;12.116;2023-12-20T12:53:04;5.03;118.99
584;HTU21D;27024;54.068;12.116;2023-12-20T12:55:31;5.00;118.99
584;HTU21D;27024;54.068;12.116;2023-12-20T12:57:58;5.02;118.99
584;HTU21D;27024;54.068;12.116;2023-12-20T13:00:25;5.03;118.99
584;HTU21D;27024;54.068;12.116;2023-12-20T13:02:53;4.95;118.99
584;HTU21D;27024;54.068;12.116;2023-12-20T13:05:19;5.03;118.99
584;HTU21D;27024;54.068;12.116;2023-12-20T13:07:47;5.08;118.99
584;HTU21D;27024;54.068;12.116;2023-12-20T13:10:15;4.95;118.99
584;HTU21D;27024;54.068;12.116;2023-12-20T13:12:43;4.94;118.99
584;HTU21D;27024;54.068;12.116;2023-12-20T13:15:11;4.91;118.99
584;HTU21D;27024;54.068;12.116;2023-12-20T13:17:38;4.98;118.99
584;HTU21D;27024;54.068;12.116;2023-12-20T13:20:05;5.01;118.99
584;HTU21D;27024;54.068;12.116;2023-12-20T13:22:33;4.96;118.99
584;HTU21D;27024;54.068;12.116;2023-12-20T13:25:00;5.09;118.99
584;HTU21D;27024;54.068;12.116;2023-12-20T13:27:28;5.02;118.99
584;HTU21D;27024;54.068;12.116;2023-12-20T13:29:55;5.02;118.99
584;HTU21D;27024;54.068;12.116;2023-12-20T13:32:22;5.05;118.99
584;HTU21D;27024;54.068;12.116;2023-12-20T13:34:49;5.07;118.99
584;HTU21D;27024;54.068;12.116;2023-12-20T13:37:17;5.05;118.99
584;HTU21D;27024;54.068;12.116;2023-12-20T13:39:45;5.13;118.99
584;HTU21D;27024;54.068;12.116;2023-12-20T13:42:12;5.19;118.99
584;HTU21D;27024;54.068;12.116;2023-12-20T13:44:39;5.23;118.99
584;HTU21D;27024;54.068;12.116;2023-12-20T13:47:06;5.19;118.99
584;HTU21D;27024;54.068;12.116;2023-12-20T13:49:33;5.13;118.99
584;HTU21D;27024;54.068;12.116;2023-12-20T13:52:00;5.07;118.99
584;HTU21D;27024;54.068;12.116;2023-12-20T13:54:27;5.04;118.99
584;HTU21D;27024;54.068;12.116;2023-12-20T13:56:54;5.01;118.99
584;HTU21D;27024;54.068;12.116;2023-12-20T13:59:37;5.07;118.99
584;HTU21D;27024;54.068;12.116;2023-12-20T14:02:05;5.00;118.99
584;HTU21D;27024;54.068;12.116;2023-12-20T14:04:32;5.02;118.99
584;HTU21D;27024;54.068;12.116;2023-12-20T14:07:09;4.97;118.99
584;HTU21D;27024;54.068;12.116;2023-12-20T14:09:39;5.05;118.99
584;HTU21D;27024;54.068;12.116;2023-12-20T14:12:13;4.94;118.99
584;HTU21D;27024;54.068;12.116;2023-12-20T14:14:40;5.02;118.99
584;HTU21D;27024;54.068;12.116;2023-12-20T14:17:07;5.03;118.99
584;HTU21D;27024;54.068;12.116;2023-12-20T14:19:34;4.95;118.99
584;HTU21D;27024;54.068;12.116;2023-12-20T14:22:01;4.97;118.99
584;HTU21D;27024;54.068;12.116;2023-12-20T14:24:30;4.94;118.99
584;HTU21D;27024;54.068;12.116;2023-12-20T14:26:57;4.92;118.99
584;HTU21D;27024;54.068;12.116;2023-12-20T14:29:25;4.84;118.99
584;HTU21D;27024;54.068;12.116;2023-12-20T14:31:53;4.80;118.99
584;HTU21D;27024;54.068;12.116;2023-12-20T14:34:20;4.69;118.99
584;HTU21D;27024;54.068;12.116;2023-12-20T14:36:47;4.72;118.99
584;HTU21D;27024;54.068;12.116;2023-12-20T14:39:16;4.65;118.99
584;HTU21D;27024;54.068;12.116;2023-12-20T14:41:44;4.60;118.99
584;HTU21D;27024;54.068;12.116;2023-12-20T14:44:11;4.66;118.99
584;HTU21D;27024;54.068;12.116;2023-12-20T14:46:38;4.67;118.99
584;HTU21D;27024;54.068;12.116;2023-12-20T14:49:08;4.62;118.99
584;HTU21D;27024;54.068;12.116;2023-12-20T14:51:35;4.67;118.99
584;HTU21D;27024;54.068;12.116;2023-12-20T14:54:04;4.59;118.99
584;HTU21D;27024;54.068;12.116;2023-12-20T14:56:32;4.58;118.99
584;HTU21D;27024;54.068;12.116;2023-12-20T14:58:59;4.58;118.99
584;HTU21D;27024;54.068;12.116;2023-12-20T15:01:29;4.47;118.99
584;HTU21D;27024;54.068;12.116;2023-12-20T15:03:58;4.48;118.99
584;HTU21D;27024;54.068;12.116;2023-12-20T15:06:25;4.41;118.99
584;HTU21D;27024;54.068;12.116;2023-12-20T15:08:52;4.38;118.99
584;HTU21D;27024;54.068;12.116;2023-12-20T15:11:19;4.38;118.99
584;HTU21D;27024;54.068;12.116;2023-12-20T15:13:46;4.32;118.99
584;HTU21D;27024;54.068;12.116;2023-12-20T15:16:21;4.39;118.99
584;HTU21D;27024;54.068;12.116;2023-12-20T15:18:49;4.41;118.99
584;HTU21D;27024;54.068;12.116;2023-12-20T15:21:17;4.37;118.99
584;HTU21D;27024;54.068;12.116;2023-12-20T15:23:44;4.41;118.99
584;HTU21D;27024;54.068;12.116;2023-12-20T15:26:19;4.36;118.99
584;HTU21D;27024;54.068;12.116;2023-12-20T15:28:46;4.42;118.99
584;HTU21D;27024;54.068;12.116;2023-12-20T15:31:13;4.36;118.99
584;HTU21D;27024;54.068;12.116;2023-12-20T15:33:40;4.43;118.99
584;HTU21D;27024;54.068;12.116;2023-12-20T15:36:08;4.46;118.99